Time;durP1;ratioP1;P1;durP2;ratioP2;P2;SDS_P1;SDS_P2;PMS_P1;PMS_P2;Temp;Humidity;BMP_temperature;BMP_pressure;BME280_temperature;BME280_humidity;BME280_pressure;Samples;Min_cycle;Max_cycle;Signal;HPM_P1;HPM_P2
2022/07/15 00:00:09;;;;;;;4.30;2.58;;;24.10;90.40;;;;;;5012167;28;20116;-73
2022/07/15 00:02:35;;;;;;;7.70;2.80;;;24.00;90.40;;;;;;5011936;28;22765;-73
2022/07/15 00:05:00;;;;;;;5.05;2.70;;;24.10;90.50;;;;;;5011091;28;20053;-73
2022/07/15 00:07:26;;;;;;;4.70;3.05;;;24.00;90.50;;;;;;5011961;28;20037;-74
2022/07/15 00:12:36;;;;;;;;;;;23.90;90.80;;;;;;5011250;28;20095;-73
2022/07/15 00:15:02;;;;;;;5.47;3.25;;;23.70;90.90;;;;;;5013032;28;20011;-73
2022/07/15 00:17:28;;;;;;;4.30;2.67;;;23.70;91.00;;;;;;5010091;28;20133;-73
2022/07/15 00:19:54;;;;;;;4.55;2.97;;;23.80;91.10;;;;;;5012968;28;20060;-73
2022/07/15 00:22:20;;;;;;;5.05;3.03;;;23.70;91.10;;;;;;5010445;28;20030;-73
2022/07/15 00:24:45;;;;;;;5.88;3.35;;;23.70;91.20;;;;;;5011968;28;20022;-74
2022/07/15 00:27:11;;;;;;;5.18;2.67;;;23.70;91.30;;;;;;5009829;28;20547;-73
2022/07/15 00:29:37;;;;;;;6.55;3.60;;;23.60;91.40;;;;;;5012417;28;20021;-74
2022/07/15 00:32:03;;;;;;;5.20;2.83;;;23.50;91.40;;;;;;5009622;28;20026;-74
2022/07/15 00:34:28;;;;;;;6.07;2.70;;;23.50;91.60;;;;;;5010100;28;20034;-74
2022/07/15 00:36:54;;;;;;;5.22;3.28;;;23.50;91.60;;;;;;5011255;28;20029;-74
2022/07/15 00:39:20;;;;;;;4.68;3.47;;;23.50;91.60;;;;;;5010064;28;20538;-73
2022/07/15 00:41:45;;;;;;;5.32;3.03;;;23.40;91.70;;;;;;5013097;28;20041;-74
2022/07/15 00:44:11;;;;;;;4.47;2.75;;;23.40;91.70;;;;;;5011072;28;20037;-73
2022/07/15 00:46:37;;;;;;;5.60;3.00;;;23.40;91.80;;;;;;5012601;28;20042;-73
2022/07/15 00:49:06;;;;;;;6.18;3.30;;;23.30;91.90;;;;;;5010873;28;20022;-74
2022/07/15 00:51:42;;;;;;;6.40;2.83;;;23.30;91.90;;;;;;5011160;28;20030;-73
2022/07/15 00:54:15;;;;;;;5.43;2.58;;;23.30;92.00;;;;;;5009089;28;20439;-73
2022/07/15 00:56:47;;;;;;;6.53;2.85;;;23.20;92.10;;;;;;5012275;28;20443;-73
2022/07/15 00:59:15;;;;;;;8.63;2.83;;;23.20;92.20;;;;;;5010491;28;20030;-73
2022/07/15 01:01:42;;;;;;;6.72;3.47;;;23.30;92.30;;;;;;5010322;28;20046;-74
2022/07/15 01:04:10;;;;;;;7.00;2.88;;;23.30;92.10;;;;;;5010397;28;20036;-73
2022/07/15 01:06:36;;;;;;;5.35;3.00;;;23.20;92.10;;;;;;5010519;28;20502;-73
2022/07/15 01:09:02;;;;;;;4.93;2.80;;;23.20;92.40;;;;;;5010818;28;20033;-73
2022/07/15 01:11:30;;;;;;;7.18;2.72;;;23.10;92.50;;;;;;5010216;28;20026;-74
2022/07/15 01:13:57;;;;;;;4.72;3.28;;;23.10;92.40;;;;;;5010813;28;20033;-73
2022/07/15 01:16:23;;;;;;;7.07;3.20;;;23.10;92.40;;;;;;5011024;28;20091;-74
2022/07/15 01:18:48;;;;;;;4.82;3.03;;;23.10;92.50;;;;;;5010553;28;20502;-74
2022/07/15 01:21:14;;;;;;;6.90;3.83;;;23.00;92.60;;;;;;5008685;28;20504;-74
2022/07/15 01:23:42;;;;;;;5.35;2.92;;;23.00;92.70;;;;;;5010900;28;20519;-75
2022/07/15 01:26:12;;;;;;;4.10;3.03;;;22.90;92.70;;;;;;5012083;28;20481;-74
2022/07/15 01:28:38;;;;;;;7.78;3.80;;;22.90;92.90;;;;;;5010065;28;20037;-74
2022/07/15 01:31:04;;;;;;;7.43;3.78;;;22.80;92.90;;;;;;5012470;28;20120;-73
2022/07/15 01:33:31;;;;;;;7.25;2.95;;;22.80;93.00;;;;;;5010232;28;20168;-73
2022/07/15 01:35:58;;;;;;;4.90;2.80;;;22.80;93.20;;;;;;5009858;28;20034;-73
2022/07/15 01:38:24;;;;;;;7.07;2.75;;;22.80;93.20;;;;;;5010337;28;20111;-73
2022/07/15 01:40:50;;;;;;;5.45;3.20;;;22.70;93.20;;;;;;5012316;28;20507;-73
2022/07/15 01:43:16;;;;;;;5.28;3.13;;;22.70;93.20;;;;;;5007993;28;20034;-73
2022/07/15 01:45:45;;;;;;;10.02;2.92;;;22.70;93.20;;;;;;5009973;28;20018;-73
2022/07/15 01:49:21;;;;;;;6.03;3.53;;;22.60;93.30;;;;;;5009466;28;20378;-73
2022/07/15 01:50:59;;;;;;;7.65;3.28;;;22.60;93.50;;;;;;5010013;28;20030;-74
2022/07/15 01:53:26;;;;;;;5.55;3.08;;;22.50;93.60;;;;;;5010481;28;20092;-73
2022/07/15 01:55:52;;;;;;;7.22;3.63;;;22.60;93.60;;;;;;5008961;28;20030;-73
2022/07/15 01:58:18;;;;;;;5.55;3.78;;;22.60;93.70;;;;;;5010244;28;20403;-73
2022/07/15 02:00:44;;;;;;;6.10;3.22;;;22.60;93.60;;;;;;5010075;28;20042;-74
2022/07/15 02:03:10;;;;;;;5.93;2.72;;;22.60;93.60;;;;;;5010715;28;20103;-73
2022/07/15 02:05:36;;;;;;;5.47;3.33;;;22.60;93.70;;;;;;5013615;28;20026;-73
2022/07/15 02:08:02;;;;;;;5.88;3.25;;;22.50;93.70;;;;;;5013842;28;20057;-73
2022/07/15 02:10:41;;;;;;;4.20;2.95;;;22.50;93.70;;;;;;5015882;28;20034;-73
2022/07/15 02:13:08;;;;;;;3.78;2.70;;;22.50;93.80;;;;;;5015428;28;20041;-73
2022/07/15 02:15:34;;;;;;;5.35;3.42;;;22.50;93.90;;;;;;5014371;28;20068;-73
2022/07/15 02:18:00;;;;;;;7.75;3.47;;;22.50;93.90;;;;;;5012270;28;20034;-73
2022/07/15 02:20:27;;;;;;;7.20;3.75;;;22.40;93.90;;;;;;5015352;28;20038;-73
2022/07/15 02:22:53;;;;;;;6.20;3.20;;;22.40;93.90;;;;;;5013534;28;20025;-73
2022/07/15 02:25:19;;;;;;;6.38;3.42;;;22.50;94.00;;;;;;5014618;28;20037;-73
2022/07/15 02:27:44;;;;;;;5.75;3.75;;;22.50;94.00;;;;;;5013214;28;20373;-73
2022/07/15 02:30:11;;;;;;;4.63;2.72;;;22.40;94.10;;;;;;5015239;28;20085;-73
2022/07/15 02:32:37;;;;;;;7.15;3.42;;;22.40;94.10;;;;;;5012580;28;20029;-74
2022/07/15 02:35:04;;;;;;;6.75;3.60;;;22.40;94.20;;;;;;5014562;28;20045;-73
2022/07/15 02:37:29;;;;;;;4.95;3.40;;;22.30;94.30;;;;;;5013216;28;20032;-73
2022/07/15 02:39:55;;;;;;;7.38;3.60;;;22.30;94.30;;;;;;5014450;28;20045;-73
2022/07/15 02:42:21;;;;;;;6.07;3.45;;;22.20;94.40;;;;;;5010982;28;20040;-73
2022/07/15 02:44:47;;;;;;;5.43;3.80;;;22.30;94.40;;;;;;5014520;28;20044;-73
2022/07/15 02:47:13;;;;;;;5.43;3.30;;;22.30;94.30;;;;;;5012826;28;20026;-73
2022/07/15 02:49:39;;;;;;;5.10;3.28;;;22.30;94.40;;;;;;5008181;28;20403;-73
2022/07/15 02:52:04;;;;;;;6.28;3.33;;;22.30;94.50;;;;;;5014847;28;20400;-73
2022/07/15 02:54:30;;;;;;;6.00;3.40;;;22.20;94.50;;;;;;5013441;28;20396;-73
2022/07/15 02:56:56;;;;;;;7.55;3.20;;;22.00;94.80;;;;;;5014114;28;20096;-73
2022/07/15 02:59:21;;;;;;;5.90;3.72;;;22.10;94.90;;;;;;5012971;28;20373;-73
2022/07/15 03:01:47;;;;;;;6.93;3.72;;;22.00;95.10;;;;;;5014175;28;20420;-73
2022/07/15 03:04:13;;;;;;;6.38;4.15;;;21.90;95.30;;;;;;5004091;28;20152;-74
2022/07/15 03:06:38;;;;;;;8.60;4.20;;;21.70;95.60;;;;;;4990920;28;20124;-73
2022/07/15 03:09:05;;;;;;;7.68;3.97;;;21.70;95.60;;;;;;5010257;28;20034;-73
2022/07/15 03:11:31;;;;;;;7.22;3.97;;;21.60;95.80;;;;;;5011762;28;20038;-73
2022/07/15 03:13:56;;;;;;;4.80;3.38;;;21.60;95.90;;;;;;5007660;28;20037;-73
2022/07/15 03:16:22;;;;;;;7.78;3.80;;;21.70;95.70;;;;;;5008386;28;20036;-73
2022/07/15 03:18:48;;;;;;;6.47;3.13;;;21.90;95.40;;;;;;5004604;28;20030;-73
2022/07/15 03:21:13;;;;;;;5.95;3.70;;;21.80;95.60;;;;;;5004533;28;20129;-73
2022/07/15 03:23:39;;;;;;;7.18;3.63;;;21.70;95.90;;;;;;5006614;28;20046;-73
2022/07/15 03:26:04;;;;;;;6.93;4.05;;;21.50;96.20;;;;;;5008363;28;20029;-73
2022/07/15 03:28:30;;;;;;;6.93;3.55;;;21.60;96.40;;;;;;5008617;28;20033;-73
2022/07/15 03:30:56;;;;;;;6.63;3.45;;;21.60;96.10;;;;;;5008227;28;20158;-73
2022/07/15 03:33:21;;;;;;;5.53;3.70;;;21.70;96.00;;;;;;5008874;28;20072;-73
2022/07/15 03:35:47;;;;;;;5.38;3.72;;;21.80;95.70;;;;;;5008882;28;20038;-73
2022/07/15 03:38:13;;;;;;;5.82;3.58;;;21.70;95.80;;;;;;5008652;28;20488;-73
2022/07/15 03:40:38;;;;;;;8.55;3.92;;;21.70;95.90;;;;;;5009565;28;20141;-73
2022/07/15 03:43:04;;;;;;;5.38;3.67;;;21.60;96.10;;;;;;5005272;28;20025;-73
2022/07/15 03:45:30;;;;;;;7.45;4.10;;;21.80;96.00;;;;;;5009605;28;20029;-73
2022/07/15 03:47:55;;;;;;;6.90;4.07;;;21.70;96.20;;;;;;5007522;28;20361;-74
2022/07/15 03:50:21;;;;;;;7.68;3.72;;;21.60;96.20;;;;;;5008319;28;20596;-73
2022/07/15 03:52:46;;;;;;;6.70;4.30;;;21.60;96.30;;;;;;5008710;28;20032;-73
2022/07/15 03:55:12;;;;;;;5.70;4.10;;;21.30;96.70;;;;;;4938627;28;20037;-73
2022/07/15 03:57:38;;;;;;;6.07;3.55;;;21.10;97.10;;;;;;4960125;28;20034;-73
2022/07/15 04:00:05;;;;;;;6.22;4.30;;;21.30;97.00;;;;;;5006017;28;20409;-73
2022/07/15 04:02:31;;;;;;;6.63;4.13;;;21.20;97.10;;;;;;5005514;28;20056;-73
2022/07/15 04:04:57;;;;;;;7.63;3.78;;;21.20;97.30;;;;;;5004339;28;20038;-73
2022/07/15 04:07:22;;;;;;;5.50;3.65;;;21.10;97.30;;;;;;5001771;28;20053;-74
2022/07/15 04:09:48;;;;;;;8.90;5.30;;;21.10;97.30;;;;;;5005636;28;20053;-73
2022/07/15 04:12:13;;;;;;;11.40;4.15;;;21.20;97.30;;;;;;5004408;28;20271;-73
2022/07/15 04:14:39;;;;;;;5.70;4.70;;;21.20;97.40;;;;;;5006359;28;20512;-73
2022/07/15 04:17:05;;;;;;;7.40;4.25;;;21.20;97.40;;;;;;5002953;28;20049;-73
2022/07/15 04:19:31;;;;;;;5.65;3.67;;;21.10;97.40;;;;;;5001271;28;20034;-74
2022/07/15 04:21:57;;;;;;;7.22;4.65;;;21.10;97.50;;;;;;5004845;28;20133;-74
2022/07/15 04:24:23;;;;;;;8.75;4.60;;;21.10;97.60;;;;;;5003135;28;20116;-75
2022/07/15 04:26:48;;;;;;;7.82;3.78;;;21.20;97.60;;;;;;5004866;28;20121;-74
2022/07/15 04:29:14;;;;;;;6.97;3.83;;;21.30;97.50;;;;;;5001051;28;20061;-75
2022/07/15 04:31:39;;;;;;;6.45;4.00;;;21.30;97.50;;;;;;5004861;28;20022;-74
2022/07/15 04:34:05;;;;;;;8.00;4.70;;;21.30;97.60;;;;;;5004736;28;20030;-74
2022/07/15 04:36:31;;;;;;;6.32;4.10;;;21.20;97.80;;;;;;5003100;28;20045;-74
2022/07/15 04:38:56;;;;;;;6.30;4.03;;;21.20;97.90;;;;;;5002003;28;20033;-74
2022/07/15 04:41:22;;;;;;;7.78;4.47;;;21.10;98.00;;;;;;5004415;28;20534;-74
2022/07/15 04:43:48;;;;;;;6.30;4.25;;;21.00;98.30;;;;;;5002565;28;20057;-74
2022/07/15 04:46:13;;;;;;;9.80;4.15;;;21.10;98.20;;;;;;5005230;28;20042;-74
2022/07/15 04:51:23;;;;;;;;;;;21.40;97.80;;;;;;5003774;28;20680;-74
2022/07/15 04:53:49;;;;;;;7.60;5.00;;;21.30;97.80;;;;;;5004821;28;19910;-74
2022/07/15 04:56:15;;;;;;;9.07;4.93;;;21.30;97.90;;;;;;5003517;28;20030;-74
2022/07/15 04:58:41;;;;;;;6.13;4.15;;;21.30;98.10;;;;;;5002687;28;20088;-74
2022/07/15 05:01:06;;;;;;;6.85;4.28;;;21.20;98.20;;;;;;5000669;28;20045;-75
2022/07/15 05:03:32;;;;;;;5.55;4.32;;;21.30;98.10;;;;;;5004456;28;20562;-74
2022/07/15 05:05:58;;;;;;;6.90;4.38;;;21.30;98.20;;;;;;5003484;28;20037;-75
2022/07/15 05:08:23;;;;;;;6.78;4.40;;;21.30;98.30;;;;;;5004005;28;20038;-74
2022/07/15 05:10:49;;;;;;;6.82;4.75;;;21.40;98.00;;;;;;5000914;28;20116;-74
2022/07/15 05:13:15;;;;;;;8.73;4.82;;;21.60;97.70;;;;;;5009757;28;20034;-74
2022/07/15 05:15:40;;;;;;;5.43;4.43;;;21.70;97.60;;;;;;5004280;28;20642;-75
2022/07/15 05:18:06;;;;;;;6.55;4.07;;;21.70;97.50;;;;;;5003417;28;20587;-74
2022/07/15 05:20:32;;;;;;;5.50;4.22;;;21.70;97.60;;;;;;5001574;28;20397;-74
2022/07/15 05:22:57;;;;;;;6.15;3.97;;;21.70;97.60;;;;;;5004291;28;20472;-74
2022/07/15 05:25:23;;;;;;;7.32;4.55;;;21.70;97.60;;;;;;5002767;28;20103;-74
2022/07/15 05:27:49;;;;;;;7.82;5.20;;;21.70;97.70;;;;;;5002171;28;20054;-74
2022/07/15 05:30:16;;;;;;;7.68;4.15;;;21.60;98.00;;;;;;5001494;28;20117;-74
2022/07/15 05:32:42;;;;;;;9.40;4.60;;;21.60;98.00;;;;;;5001276;28;20030;-74
2022/07/15 05:35:08;;;;;;;6.72;4.20;;;21.70;97.80;;;;;;5005525;28;20048;-77
2022/07/15 05:37:38;;;;;;;5.85;4.10;;;21.90;97.60;;;;;;4986050;28;20030;-74
2022/07/15 05:40:07;;;;;;;8.38;4.95;;;22.00;97.20;;;;;;5000097;28;20138;-74
2022/07/15 05:42:33;;;;;;;7.68;4.35;;;22.00;97.20;;;;;;5003563;28;20021;-74
2022/07/15 05:45:00;;;;;;;6.43;4.45;;;22.20;97.00;;;;;;5002284;28;20665;-76
2022/07/15 05:47:26;;;;;;;7.10;4.35;;;22.20;97.20;;;;;;5002991;28;20110;-74
2022/07/15 05:49:51;;;;;;;5.65;4.10;;;22.20;97.00;;;;;;5001859;28;20132;-74
2022/07/15 05:52:17;;;;;;;6.90;4.50;;;22.20;96.70;;;;;;5004004;28;20131;-74
2022/07/15 05:54:43;;;;;;;6.88;4.68;;;22.30;96.90;;;;;;5004067;28;20105;-74
2022/07/15 05:57:09;;;;;;;7.47;5.05;;;22.40;97.40;;;;;;5004228;28;20083;-74
2022/07/15 05:59:35;;;;;;;7.38;4.18;;;22.40;97.80;;;;;;5002526;28;20084;-74
2022/07/15 06:02:00;;;;;;;6.60;4.32;;;22.40;97.60;;;;;;5003120;28;20054;-74
2022/07/15 06:04:27;;;;;;;8.13;4.50;;;22.40;97.80;;;;;;5003572;28;20413;-74
2022/07/15 06:06:53;;;;;;;7.90;4.88;;;22.50;97.30;;;;;;5003647;28;20030;-74
2022/07/15 06:09:20;;;;;;;7.10;4.53;;;22.50;97.50;;;;;;5003151;28;20042;-74
2022/07/15 06:11:45;;;;;;;6.18;4.80;;;22.50;97.40;;;;;;5003643;28;20397;-74
2022/07/15 06:14:11;;;;;;;7.32;4.40;;;22.50;97.00;;;;;;5002916;28;20479;-74
2022/07/15 06:16:37;;;;;;;10.38;4.72;;;22.70;96.70;;;;;;5002916;28;20050;-74
2022/07/15 06:19:03;;;;;;;7.22;4.30;;;22.80;96.60;;;;;;5002400;28;20033;-74
2022/07/15 06:21:30;;;;;;;6.57;4.30;;;22.90;97.00;;;;;;5002480;28;20037;-74
2022/07/15 06:23:56;;;;;;;10.60;4.80;;;23.00;96.20;;;;;;5003231;28;20522;-74
2022/07/15 06:26:21;;;;;;;5.95;4.25;;;23.10;95.50;;;;;;5004270;28;20037;-74
2022/07/15 06:28:47;;;;;;;6.43;4.65;;;23.10;95.40;;;;;;5003568;28;20499;-74
2022/07/15 06:31:13;;;;;;;6.22;4.55;;;23.20;94.80;;;;;;5003389;28;20036;-74
2022/07/15 06:33:38;;;;;;;6.75;4.45;;;23.30;95.30;;;;;;5001106;28;20030;-74
2022/07/15 06:36:04;;;;;;;8.60;5.40;;;23.40;94.30;;;;;;5003983;28;20062;-75
2022/07/15 06:38:33;;;;;;;6.38;4.78;;;23.50;94.60;;;;;;5003607;28;20503;-74
2022/07/15 06:40:59;;;;;;;10.73;4.82;;;23.60;94.50;;;;;;5000971;28;20695;-75
2022/07/15 06:43:24;;;;;;;6.90;4.80;;;23.70;94.50;;;;;;5003242;28;20069;-74
2022/07/15 06:45:50;;;;;;;7.50;3.90;;;23.60;94.80;;;;;;5002001;28;20420;-74
2022/07/15 06:48:16;;;;;;;8.10;4.60;;;23.60;94.20;;;;;;5002494;28;20968;-74
2022/07/15 06:50:42;;;;;;;9.02;4.88;;;23.70;94.00;;;;;;5004942;28;20095;-74
2022/07/15 06:53:08;;;;;;;9.23;5.07;;;23.70;94.30;;;;;;5007031;28;20034;-74
2022/07/15 06:55:33;;;;;;;9.55;5.35;;;23.80;94.40;;;;;;5004884;28;20033;-74
2022/07/15 06:57:59;;;;;;;8.70;4.45;;;23.90;94.30;;;;;;4998726;28;20393;-74
2022/07/15 07:00:25;;;;;;;6.55;4.85;;;24.00;94.20;;;;;;5005675;28;20081;-74
2022/07/15 07:02:50;;;;;;;8.43;5.50;;;24.20;94.00;;;;;;5006083;28;20049;-74
2022/07/15 07:05:17;;;;;;;7.68;4.32;;;24.40;93.70;;;;;;5007248;28;20042;-74
2022/07/15 07:07:42;;;;;;;8.48;4.78;;;24.60;93.30;;;;;;5006241;28;20029;-74
2022/07/15 07:10:09;;;;;;;8.18;4.53;;;24.80;92.80;;;;;;5006884;28;20578;-74
2022/07/15 07:12:35;;;;;;;6.22;4.57;;;25.10;92.50;;;;;;5007234;28;20137;-74
2022/07/15 07:15:02;;;;;;;6.82;4.82;;;25.40;92.60;;;;;;5004223;28;20060;-74
2022/07/15 07:17:28;;;;;;;9.75;4.38;;;25.70;92.00;;;;;;5006769;28;20033;-74
2022/07/15 07:19:55;;;;;;;6.93;4.35;;;25.90;92.00;;;;;;5002766;28;20562;-74
2022/07/15 07:22:21;;;;;;;9.45;4.35;;;26.00;91.20;;;;;;5006194;28;20026;-74
2022/07/15 07:24:47;;;;;;;9.00;4.68;;;26.30;91.00;;;;;;5003111;28;20715;-74
2022/07/15 07:27:14;;;;;;;5.60;4.00;;;26.60;90.90;;;;;;5003328;28;20037;-74
2022/07/15 07:29:39;;;;;;;7.57;4.53;;;26.90;90.40;;;;;;5005832;28;20428;-74
2022/07/15 07:32:05;;;;;;;6.88;4.32;;;27.20;90.20;;;;;;5005963;28;20041;-74
2022/07/15 07:34:32;;;;;;;8.90;5.03;;;27.90;89.70;;;;;;5006362;28;20157;-74
2022/07/15 07:36:58;;;;;;;7.40;4.43;;;28.70;88.00;;;;;;5004622;28;20042;-74
2022/07/15 07:39:23;;;;;;;7.80;4.80;;;29.60;85.80;;;;;;5006765;28;20452;-74
2022/07/15 07:41:53;;;;;;;8.65;4.95;;;30.50;84.50;;;;;;5005797;28;20046;-74
2022/07/15 07:44:19;;;;;;;8.45;4.35;;;31.20;82.80;;;;;;5004888;28;20064;-74
2022/07/15 07:46:46;;;;;;;7.82;4.20;;;32.10;81.50;;;;;;5004383;28;20026;-74
2022/07/15 07:49:12;;;;;;;8.35;4.47;;;33.20;80.60;;;;;;5005607;28;20101;-74
2022/07/15 07:51:40;;;;;;;9.07;4.15;;;33.20;80.30;;;;;;5005431;28;20113;-74
2022/07/15 07:54:06;;;;;;;8.00;4.32;;;32.80;79.30;;;;;;5005399;28;20025;-74
2022/07/15 07:56:32;;;;;;;9.73;4.50;;;32.70;79.00;;;;;;4987262;28;20591;-74
2022/07/15 07:58:58;;;;;;;7.85;4.25;;;32.30;78.60;;;;;;5008820;28;20057;-74
2022/07/15 08:01:23;;;;;;;9.90;4.85;;;32.20;79.90;;;;;;5005517;28;20050;-74
2022/07/15 08:03:50;;;;;;;8.18;4.20;;;31.90;81.10;;;;;;5005092;28;20042;-74
2022/07/15 08:06:17;;;;;;;7.57;4.35;;;31.80;81.20;;;;;;5004229;28;20026;-74
2022/07/15 08:08:43;;;;;;;5.13;3.97;;;31.20;81.60;;;;;;5005436;28;20034;-74
2022/07/15 08:11:10;;;;;;;7.03;4.20;;;31.00;81.30;;;;;;5005636;28;20029;-74
2022/07/15 08:13:36;;;;;;;5.70;4.15;;;30.10;82.40;;;;;;5005186;28;20041;-74
2022/07/15 08:16:03;;;;;;;10.90;5.72;;;30.00;83.30;;;;;;5003670;28;20026;-74
2022/07/15 08:18:28;;;;;;;14.00;5.30;;;29.90;83.60;;;;;;5005288;28;20029;-74
2022/07/15 08:20:54;;;;;;;15.95;5.53;;;29.70;84.60;;;;;;5005377;28;20476;-74
2022/07/15 08:23:21;;;;;;;6.20;4.40;;;29.20;83.90;;;;;;5004769;28;20045;-74
2022/07/15 08:25:49;;;;;;;7.28;4.47;;;29.40;84.60;;;;;;5002584;28;20108;-74
2022/07/15 08:28:15;;;;;;;9.95;5.10;;;29.60;84.70;;;;;;5004413;28;20491;-74
2022/07/15 08:30:41;;;;;;;6.88;5.15;;;29.60;84.00;;;;;;5004721;28;20038;-74
2022/07/15 08:33:06;;;;;;;7.53;4.50;;;29.20;84.00;;;;;;5002043;28;20407;-74
2022/07/15 08:35:34;;;;;;;6.30;4.10;;;29.30;85.10;;;;;;5004747;28;20033;-74
2022/07/15 08:38:05;;;;;;;6.68;4.47;;;29.40;85.60;;;;;;5004305;28;20026;-74
2022/07/15 08:40:31;;;;;;;6.18;4.43;;;29.50;83.40;;;;;;5003633;28;20034;-74
2022/07/15 08:42:57;;;;;;;8.73;4.90;;;29.50;84.20;;;;;;5005065;28;20377;-74
2022/07/15 08:45:23;;;;;;;5.25;4.45;;;29.20;83.60;;;;;;5005463;28;20030;-74
2022/07/15 08:47:51;;;;;;;7.68;4.40;;;29.30;84.30;;;;;;5005387;28;20030;-74
2022/07/15 08:50:18;;;;;;;10.80;4.35;;;29.50;85.20;;;;;;5002616;28;20034;-74
2022/07/15 08:52:45;;;;;;;5.78;4.00;;;29.40;84.90;;;;;;5004747;28;20032;-74
2022/07/15 08:55:12;;;;;;;5.95;4.30;;;29.40;84.30;;;;;;5003994;28;20088;-74
2022/07/15 08:57:37;;;;;;;12.05;4.38;;;29.50;83.50;;;;;;5005078;28;20026;-74
2022/07/15 09:00:09;;;;;;;7.63;4.18;;;29.30;84.40;;;;;;5003473;28;20041;-74
2022/07/15 09:02:37;;;;;;;6.85;4.13;;;29.90;84.00;;;;;;5002258;28;20471;-74
2022/07/15 09:05:18;;;;;;;10.43;4.38;;;30.10;82.80;;;;;;5003676;28;20034;-74
2022/07/15 09:07:53;;;;;;;8.15;4.40;;;29.60;83.10;;;;;;5003634;28;20026;-74
2022/07/15 09:10:21;;;;;;;7.03;4.35;;;29.60;83.60;;;;;;5002077;28;20045;-74
2022/07/15 09:12:55;;;;;;;7.00;5.03;;;30.00;83.30;;;;;;5004699;28;20038;-74
2022/07/15 09:15:35;;;;;;;9.50;4.15;;;30.10;83.60;;;;;;5002938;28;20034;-74
2022/07/15 09:18:10;;;;;;;6.63;4.38;;;30.40;82.50;;;;;;5003183;28;20176;-74
2022/07/15 09:20:36;;;;;;;9.13;4.57;;;30.40;84.70;;;;;;5003313;28;20046;-74
2022/07/15 09:23:03;;;;;;;7.63;4.90;;;30.60;83.50;;;;;;5004438;28;20038;-74
2022/07/15 09:25:33;;;;;;;7.57;3.95;;;30.80;83.20;;;;;;5004367;28;20038;-74
2022/07/15 09:28:01;;;;;;;8.52;4.97;;;31.00;82.20;;;;;;5004858;28;20022;-75
2022/07/15 09:36:19;;;;;;;5.20;3.90;;;31.40;80.50;;;;;;5004539;28;20385;-75
2022/07/15 09:38:46;;;;;;;7.72;4.10;;;31.30;80.40;;;;;;5004374;28;20042;-74
2022/07/15 09:41:31;;;;;;;9.93;4.18;;;31.30;80.30;;;;;;5002942;28;20038;-74
2022/07/15 09:44:08;;;;;;;8.88;4.25;;;31.30;80.40;;;;;;5003562;28;20038;-74
2022/07/15 09:46:54;;;;;;;7.18;4.05;;;31.50;81.00;;;;;;5003894;28;20041;-75
2022/07/15 09:49:23;;;;;;;13.02;5.30;;;31.20;80.60;;;;;;5003953;28;20646;-75
2022/07/15 09:51:57;;;;;;;9.98;4.70;;;31.50;80.60;;;;;;5002930;28;20128;-74
2022/07/15 09:54:33;;;;;;;8.38;4.03;;;31.70;81.40;;;;;;5004341;28;20037;-75
2022/07/15 09:57:01;;;;;;;9.02;3.83;;;31.90;80.80;;;;;;5009636;28;20025;-74
2022/07/15 09:59:29;;;;;;;6.47;4.03;;;31.80;79.90;;;;;;5012423;28;20040;-74
2022/07/15 10:01:55;;;;;;;8.07;3.63;;;31.80;80.10;;;;;;5003520;28;20592;-74
2022/07/15 10:04:23;;;;;;;10.15;4.65;;;32.40;79.60;;;;;;5003553;28;20105;-74
2022/07/15 10:06:52;;;;;;;5.60;3.83;;;32.70;78.60;;;;;;4985829;28;20045;-75
2022/07/15 10:09:25;;;;;;;71.80;10.00;;;32.30;77.90;;;;;;5002892;28;20089;-74
2022/07/15 10:11:54;;;;;;;8.35;4.82;;;32.40;80.00;;;;;;5003518;28;20476;-74
2022/07/15 10:14:45;;;;;;;5.22;3.75;;;33.00;78.80;;;;;;5003424;28;20033;-74
2022/07/15 10:17:23;;;;;;;8.98;4.00;;;33.10;76.90;;;;;;5003801;28;20053;-73
2022/07/15 10:20:01;;;;;;;7.47;4.05;;;32.60;78.20;;;;;;5002336;28;20073;-74
2022/07/15 10:22:42;;;;;;;9.52;3.78;;;32.90;78.00;;;;;;5003354;28;20044;-73
2022/07/15 10:25:20;;;;;;;6.95;3.55;;;33.20;76.80;;;;;;5003314;28;20041;-73
2022/07/15 10:28:15;;;;;;;6.43;3.85;;;33.10;76.50;;;;;;5000571;28;20033;-73
2022/07/15 10:30:42;;;;;;;6.40;4.05;;;33.20;76.20;;;;;;4986863;28;20504;-73
2022/07/15 10:33:16;;;;;;;5.68;3.97;;;33.20;77.00;;;;;;5007725;28;20526;-74
2022/07/15 10:35:47;;;;;;;8.35;3.50;;;33.50;76.70;;;;;;5007978;28;20057;-74
2022/07/15 10:38:33;;;;;;;7.53;3.90;;;33.40;76.50;;;;;;5005742;28;20044;-74
2022/07/15 10:41:07;;;;;;;7.57;3.55;;;33.40;76.80;;;;;;5006869;28;20037;-73
2022/07/15 10:43:54;;;;;;;6.32;3.90;;;34.10;75.40;;;;;;5003843;28;20022;-74
2022/07/15 10:46:26;;;;;;;10.85;3.80;;;34.20;76.10;;;;;;5006000;28;20042;-74
2022/07/15 10:49:12;;;;;;;6.90;4.40;;;34.00;76.00;;;;;;5006627;28;20038;-74
2022/07/15 10:51:37;;;;;;;5.90;3.63;;;33.80;75.60;;;;;;5005048;28;20042;-74
2022/07/15 10:54:06;;;;;;;7.57;3.65;;;33.60;76.20;;;;;;5005657;28;20038;-74
2022/07/15 10:56:34;;;;;;;7.53;3.17;;;33.50;75.90;;;;;;5006616;28;20685;-74
2022/07/15 10:59:13;;;;;;;8.20;3.55;;;33.40;74.30;;;;;;5006427;28;20056;-74
2022/07/15 11:01:40;;;;;;;16.23;3.85;;;33.70;76.00;;;;;;5006164;28;20050;-74
2022/07/15 11:04:15;;;;;;;6.50;3.50;;;34.00;76.30;;;;;;5006086;28;20080;-76
2022/07/15 11:07:12;;;;;;;7.82;3.58;;;34.20;75.50;;;;;;5006696;28;20718;-76
2022/07/15 11:10:12;;;;;;;5.90;3.40;;;34.10;74.70;;;;;;5006926;28;20084;-75
2022/07/15 11:12:49;;;;;;;6.47;4.47;;;34.10;76.10;;;;;;4987847;28;20385;-74
2022/07/15 11:15:19;;;;;;;8.68;4.05;;;34.20;75.00;;;;;;5006225;28;20105;-74
2022/07/15 11:17:48;;;;;;;5.13;3.70;;;34.50;76.00;;;;;;5006665;28;20491;-74
2022/07/15 11:20:23;;;;;;;6.78;3.53;;;34.70;75.40;;;;;;5005775;28;20719;-74
2022/07/15 11:22:51;;;;;;;12.40;3.75;;;34.70;74.30;;;;;;5006227;28;20048;-74
2022/07/15 11:25:20;;;;;;;6.30;3.55;;;34.30;74.20;;;;;;5004819;28;20516;-72
2022/07/15 11:28:08;;;;;;;5.30;3.67;;;34.30;73.20;;;;;;5004506;28;20033;-72
2022/07/15 11:30:39;;;;;;;6.60;3.00;;;34.50;74.40;;;;;;5003218;28;20029;-72
2022/07/15 11:33:14;;;;;;;4.38;2.80;;;34.70;72.70;;;;;;4996407;28;20129;-74
2022/07/15 11:35:50;;;;;;;5.38;2.75;;;34.70;71.50;;;;;;5003419;28;20528;-73
2022/07/15 11:38:19;;;;;;;5.22;2.85;;;34.50;71.20;;;;;;5003031;28;20038;-73
2022/07/15 11:46:17;;;;;;;5.05;1.63;;;34.80;69.50;;;;;;5003683;28;20090;-73
2022/07/15 11:48:43;;;;;;;3.20;2.00;;;35.10;68.60;;;;;;5004578;28;20033;-72
2022/07/15 11:51:11;;;;;;;8.90;2.38;;;35.30;66.50;;;;;;5004734;28;20033;-73
2022/07/15 11:53:45;;;;;;;5.38;2.83;;;35.30;67.30;;;;;;5004266;28;20053;-73
2022/07/15 11:56:13;;;;;;;7.25;2.55;;;35.40;68.50;;;;;;5003662;28;20058;-73
2022/07/15 11:58:44;;;;;;;4.50;2.42;;;35.80;68.30;;;;;;5003341;28;20583;-73
2022/07/15 12:01:12;;;;;;;9.35;2.85;;;36.00;68.70;;;;;;5003506;28;20040;-73
2022/07/15 12:03:40;;;;;;;11.50;2.95;;;36.00;68.10;;;;;;5003135;28;20244;-73
2022/07/15 12:06:18;;;;;;;12.55;3.13;;;36.00;68.60;;;;;;5003017;28;20040;-73
2022/07/15 12:09:07;;;;;;;10.25;3.15;;;35.80;68.20;;;;;;5003305;28;20428;-73
2022/07/15 12:11:35;;;;;;;6.65;2.88;;;35.70;68.60;;;;;;5004059;28;20034;-73
2022/07/15 12:14:02;;;;;;;3.95;2.50;;;35.70;69.80;;;;;;5003926;28;20040;-73
2022/07/15 12:16:29;;;;;;;8.65;3.22;;;35.60;70.10;;;;;;5002459;28;20068;-73
2022/07/15 12:19:00;;;;;;;9.15;2.70;;;35.60;69.60;;;;;;5003992;28;20472;-73
2022/07/15 12:21:27;;;;;;;9.50;3.83;;;35.70;69.60;;;;;;5003012;28;20137;-73
2022/07/15 12:24:04;;;;;;;8.23;3.50;;;35.80;70.20;;;;;;5004368;28;20025;-73
2022/07/15 12:26:30;;;;;;;19.05;4.57;;;35.80;71.30;;;;;;5002109;28;20036;-73
2022/07/15 12:28:58;;;;;;;5.35;2.83;;;35.70;70.70;;;;;;5003463;28;20473;-73
2022/07/15 12:31:29;;;;;;;7.85;3.92;;;35.70;70.50;;;;;;5001718;28;20056;-73
2022/07/15 12:33:55;;;;;;;5.53;3.40;;;35.70;71.30;;;;;;5001701;28;20025;-73
2022/07/15 12:36:27;;;;;;;11.00;3.25;;;35.70;71.20;;;;;;5002726;28;20044;-73
2022/07/15 12:39:10;;;;;;;7.13;3.30;;;35.90;70.30;;;;;;5002750;28;20029;-73
2022/07/15 12:41:37;;;;;;;6.40;3.00;;;36.00;69.20;;;;;;5001069;28;20069;-73
2022/07/15 12:44:05;;;;;;;9.07;3.30;;;35.80;70.10;;;;;;5002609;28;20045;-73
2022/07/15 12:46:56;;;;;;;7.75;3.53;;;35.90;70.40;;;;;;5002569;28;20293;-73
2022/07/15 12:49:48;;;;;;;5.68;2.92;;;36.00;70.90;;;;;;5001059;28;20036;-73
2022/07/15 12:52:15;;;;;;;6.10;3.63;;;35.90;69.90;;;;;;5003709;28;20041;-73
2022/07/15 12:54:41;;;;;;;6.57;3.60;;;35.80;70.30;;;;;;5002681;28;20026;-73
2022/07/15 12:57:19;;;;;;;10.23;3.70;;;36.00;70.70;;;;;;5003087;28;20340;-73
2022/07/15 12:59:57;;;;;;;8.60;3.40;;;36.00;70.00;;;;;;5002118;28;20572;-73
2022/07/15 13:02:24;;;;;;;10.75;3.65;;;35.80;70.70;;;;;;5002824;28;20500;-73
2022/07/15 13:04:50;;;;;;;5.60;3.42;;;35.90;70.00;;;;;;5003070;28;20092;-73
2022/07/15 13:07:17;;;;;;;6.25;2.97;;;36.00;70.20;;;;;;5002442;28;20034;-73